Time;durP1;ratioP1;P1;durP2;ratioP2;P2;SDS_P1;SDS_P2;PMS_P1;PMS_P2;Temp;Humidity;BMP_temperature;BMP_pressure;BME280_temperature;BME280_humidity;BME280_pressure;Samples;Min_cycle;Max_cycle;Signal;HPM_P1;HPM_P2
2022/01/22 00:04:42;;;;;;;4.80;1.80;;;;;;;-0.47;66.91;99068.94;221326;1275;138956;-63
2022/01/22 00:09:52;;;;;;;5.70;2.10;;;;;;;-0.53;66.94;99061.55;221212;1276;139468;-63
2022/01/22 00:14:55;;;;;;;6.20;2.70;;;;;;;-0.55;66.91;99050.61;221493;1277;139135;-64
2022/01/22 00:19:58;;;;;;;7.40;2.50;;;;;;;-0.62;66.85;99051.43;221292;1276;139631;-62
2022/01/22 00:25:01;;;;;;;4.50;2.00;;;;;;;-0.72;66.77;99047.23;221497;1274;139903;-62
2022/01/22 00:30:07;;;;;;;5.00;1.70;;;;;;;-0.80;66.70;99044.23;221350;1277;139685;-61
2022/01/22 00:35:11;;;;;;;4.50;1.60;;;;;;;-0.80;66.61;99041.96;221441;1276;139307;-63
2022/01/22 00:40:16;;;;;;;4.30;1.80;;;;;;;-0.76;66.52;99028.84;221369;1277;139320;-64
2022/01/22 00:45:20;;;;;;;2.80;1.40;;;;;;;-0.78;66.36;99014.58;221481;1274;140059;-62
2022/01/22 00:50:24;;;;;;;2.50;1.20;;;;;;;-0.79;66.31;99020.02;220823;1277;140296;-63
2022/01/22 00:55:27;;;;;;;2.50;1.10;;;;;;;-0.85;66.17;99012.26;221236;1277;138908;-59
2022/01/22 01:00:30;;;;;;;4.20;1.60;;;;;;;-0.89;66.21;99017.20;221427;1276;139177;-63
2022/01/22 01:05:34;;;;;;;3.10;1.20;;;;;;;-0.93;66.07;99019.53;221299;1276;139410;-64
2022/01/22 01:10:37;;;;;;;2.30;1.10;;;;;;;-1.02;65.89;99019.67;221251;1277;139686;-60
2022/01/22 01:15:58;;;;;;;3.80;1.10;;;;;;;-1.08;65.92;99005.33;221310;1276;139470;-63
2022/01/22 01:37:07;;;;;;;1.10;0.80;;;;;;;-0.89;65.50;98980.82;221052;1277;139927;-61
2022/01/22 01:42:16;;;;;;;1.50;0.80;;;;;;;-0.85;65.41;98990.67;220839;1277;139123;-63
2022/01/22 01:47:19;;;;;;;3.30;1.00;;;;;;;-0.86;65.32;98997.13;221339;1276;139559;-60
2022/01/22 01:52:33;;;;;;;3.20;1.00;;;;;;;-0.84;65.29;99004.41;221322;1275;139132;-59
2022/01/22 01:57:39;;;;;;;3.10;1.20;;;;;;;-0.89;65.26;98996.66;221323;1276;139269;-62
2022/01/22 02:02:48;;;;;;;3.00;0.90;;;;;;;-0.92;65.38;98989.75;221464;1276;139994;-63
2022/01/22 02:07:55;;;;;;;2.20;1.00;;;;;;;-0.98;65.46;98982.70;221139;1277;140050;-62
2022/01/22 02:23:52;;;;;;;2.10;1.10;;;;;;;-0.89;65.74;98992.13;221031;1276;139314;-61
2022/01/22 02:28:55;;;;;;;1.50;1.10;;;;;;;-0.85;65.63;98991.02;221441;1276;139197;-61
2022/01/22 02:39:22;;;;;;;2.30;1.20;;;;;;;-0.87;65.61;98993.30;221311;1275;140250;-60
2022/01/22 02:44:33;;;;;;;3.30;1.10;;;;;;;-0.91;65.64;98994.63;221352;1277;139272;-62
2022/01/22 02:49:38;;;;;;;2.90;1.30;;;;;;;-0.99;65.82;99004.48;221415;1277;139477;-61
2022/01/22 02:54:44;;;;;;;;;;;;;;;-0.99;65.94;99005.36;221284;1276;139572;-61
2022/01/22 02:59:48;;;;;;;3.70;1.60;;;;;;;-0.95;65.95;99008.42;221387;1275;126204;-62
2022/01/22 03:04:51;;;;;;;2.70;1.50;;;;;;;-0.92;65.96;99005.59;221293;1276;139372;-61
2022/01/22 03:10:00;;;;;;;2.50;1.30;;;;;;;-0.89;65.93;99012.34;221125;1275;139273;-58
2022/01/22 03:30:39;;;;;;;4.70;1.50;;;;;;;-1.03;65.96;99018.64;221043;1274;140025;-64
2022/01/22 03:35:49;;;;;;;3.80;1.60;;;;;;;-1.04;66.12;99023.88;221385;1274;138726;-63
2022/01/22 03:40:54;;;;;;;2.90;1.70;;;;;;;-1.03;66.16;99028.73;221215;1276;139286;-62
2022/01/22 03:45:58;;;;;;;3.90;1.90;;;;;;;-1.00;66.23;99022.61;221421;1274;140072;-64
2022/01/22 03:51:01;;;;;;;5.60;2.10;;;;;;;-0.97;66.08;99018.71;221619;1276;139879;-63
2022/01/22 03:56:06;;;;;;;4.70;2.50;;;;;;;-0.91;66.16;99025.08;221286;1276;139278;-60
2022/01/22 04:11:42;;;;;;;3.50;2.20;;;;;;;-1.01;65.77;99029.23;221294;1276;139066;-58
2022/01/22 04:17:01;;;;;;;6.20;2.50;;;;;;;-1.10;65.87;99027.45;221299;1276;139256;-61
2022/01/22 04:27:29;;;;;;;5.70;3.10;;;;;;;-1.34;65.85;99023.80;221428;1275;140276;-61
2022/01/22 04:32:32;;;;;;;5.90;2.80;;;;;;;-1.44;65.98;99029.18;221354;1275;140002;-64
2022/01/22 04:37:36;;;;;;;6.60;3.20;;;;;;;-1.51;65.90;99031.36;221328;1274;141033;-58
2022/01/22 04:42:41;;;;;;;10.60;4.30;;;;;;;-1.54;66.09;99050.89;220993;1275;141518;-58
2022/01/22 04:47:55;;;;;;;9.80;4.80;;;;;;;-1.55;66.19;99061.16;221394;1276;139375;-61
2022/01/22 04:58:13;;;;;;;9.10;4.00;;;;;;;-1.55;66.36;99080.30;221050;1276;139181;-61
2022/01/22 05:03:17;;;;;;;9.80;4.70;;;;;;;-1.58;66.37;99095.13;221395;1276;139319;-64
2022/01/22 05:08:28;;;;;;;10.30;5.20;;;;;;;-1.57;66.50;99107.10;221296;1277;139239;-61
2022/01/22 05:13:42;;;;;;;9.80;4.90;;;;;;;-1.53;66.59;99121.33;221458;1274;140650;-63
2022/01/22 05:18:56;;;;;;;13.10;5.20;;;;;;;-1.52;66.59;99115.41;221271;1276;139174;-62
2022/01/22 05:24:04;;;;;;;13.20;6.10;;;;;;;-1.54;66.34;99113.16;220781;1276;139582;-57
2022/01/22 05:40:29;;;;;;;10.30;5.10;;;;;;;-1.69;66.18;99119.61;221009;1274;139642;-60
2022/01/22 05:45:32;;;;;;;10.50;5.30;;;;;;;-1.73;66.18;99132.34;221413;1274;139464;-62
2022/01/22 05:50:47;;;;;;;12.80;5.40;;;;;;;-1.76;66.32;99131.14;221465;1275;140795;-59
2022/01/22 06:01:02;;;;;;;11.70;5.70;;;;;;;-1.92;66.16;99134.45;221295;1274;139489;-60
2022/01/22 06:06:20;;;;;;;10.60;5.90;;;;;;;-1.99;66.15;99139.39;221234;1276;140212;-61
2022/01/22 06:11:25;;;;;;;8.70;4.90;;;;;;;-2.08;66.10;99154.25;221221;1275;139579;-59
2022/01/22 06:16:29;;;;;;;10.00;5.70;;;;;;;-2.11;66.15;99157.76;221322;1275;139766;-61
2022/01/22 06:21:53;;;;;;;12.10;6.00;;;;;;;-2.06;66.24;99174.23;221190;1275;140060;-60
2022/01/22 06:26:56;;;;;;;12.60;5.70;;;;;;;-2.03;66.20;99181.14;221445;1275;139754;-61
2022/01/22 06:31:59;;;;;;;10.70;5.40;;;;;;;-2.02;66.42;99183.39;221293;1276;139038;-59
2022/01/22 06:37:04;;;;;;;9.50;5.90;;;;;;;-2.02;66.38;99187.56;221296;1275;139299;-62
2022/01/22 06:42:14;;;;;;;12.40;6.00;;;;;;;-2.02;66.43;99187.56;221065;1275;140309;-62
2022/01/22 06:47:16;;;;;;;10.50;6.20;;;;;;;-2.02;66.37;99194.34;221421;1275;138963;-62
2022/01/22 06:52:29;;;;;;;16.80;7.20;;;;;;;-2.00;66.48;99186.00;221359;1276;139126;-61
2022/01/22 06:57:37;;;;;;;11.70;6.10;;;;;;;-1.99;66.59;99189.98;221332;1276;139972;-61
2022/01/22 07:02:42;;;;;;;12.30;6.80;;;;;;;-1.95;66.61;99190.63;221208;1275;140234;-61
2022/01/22 07:07:45;;;;;;;11.80;6.30;;;;;;;-1.90;66.68;99197.20;221077;1275;139734;-61
2022/01/22 07:12:49;;;;;;;14.70;6.70;;;;;;;-1.89;66.65;99196.67;221377;1276;139240;-62
2022/01/22 07:17:52;;;;;;;13.00;7.00;;;;;;;-1.86;66.57;99200.99;221380;1276;139783;-57
2022/01/22 07:28:17;;;;;;;13.70;7.70;;;;;;;-1.88;66.51;99219.25;221388;1276;138767;-62
2022/01/22 07:33:21;;;;;;;16.10;7.20;;;;;;;-1.91;66.58;99222.77;221359;1276;139098;-60
2022/01/22 07:38:24;;;;;;;12.80;6.80;;;;;;;-1.83;66.66;99232.41;221228;1276;140139;-61
2022/01/22 07:43:27;;;;;;;17.40;7.50;;;;;;;-1.66;66.80;99234.19;221178;1276;139518;-60
2022/01/22 07:48:49;;;;;;;15.40;6.40;;;;;;;-1.52;66.89;99238.20;221373;1274;139600;-62
2022/01/22 07:54:06;;;;;;;14.40;8.00;;;;;;;-1.46;66.79;99246.15;221335;1274;139308;-63
2022/01/22 07:59:09;;;;;;;16.50;7.30;;;;;;;-1.45;66.65;99253.27;221069;1276;139453;-61
2022/01/22 08:04:23;;;;;;;14.80;7.20;;;;;;;-1.41;66.62;99261.94;221174;1275;139878;-64
2022/01/22 08:09:45;;;;;;;12.80;7.30;;;;;;;-1.09;68.00;99269.41;221351;1276;140616;-62
2022/01/22 08:15:03;;;;;;;14.20;6.90;;;;;;;-0.85;67.42;99276.28;221528;1276;139560;-60
2022/01/22 08:20:08;;;;;;;14.30;5.70;;;;;;;-0.73;66.93;99274.90;221221;1275;140298;-61
2022/01/22 08:25:24;;;;;;;17.70;7.10;;;;;;;-0.74;66.49;99279.29;220884;1277;141063;-60
2022/01/22 08:30:36;;;;;;;15.30;7.50;;;;;;;-0.71;66.47;99285.00;221071;1274;139377;-65
2022/01/22 08:35:57;;;;;;;15.00;7.00;;;;;;;-0.69;66.71;99295.42;221186;1274;139633;-60
2022/01/22 08:41:01;;;;;;;14.80;6.00;;;;;;;-0.66;66.69;99298.69;221382;1275;139425;-62
2022/01/22 08:46:07;;;;;;;8.90;5.60;;;;;;;-0.63;66.59;99306.86;221334;1276;140151;-61
2022/01/22 08:51:12;;;;;;;13.00;6.70;;;;;;;-0.63;66.59;99295.35;221302;1275;139336;-63
2022/01/22 08:56:26;;;;;;;11.00;5.80;;;;;;;-0.60;66.58;99290.44;221095;1276;140001;-62
2022/01/22 09:01:30;;;;;;;10.20;5.20;;;;;;;-0.55;66.46;99290.71;221169;1276;140183;-64
2022/01/22 09:06:39;;;;;;;9.70;5.40;;;;;;;-0.49;66.36;99308.76;221142;1277;140108;-61
2022/01/22 09:11:56;;;;;;;13.00;5.90;;;;;;;-0.41;66.39;99310.23;221316;1275;139265;-63
2022/01/22 09:17:23;;;;;;;15.00;6.70;;;;;;;-0.34;66.47;99324.07;221231;1276;140439;-60
2022/01/22 09:22:29;;;;;;;13.60;5.90;;;;;;;-0.33;66.04;99323.71;221137;1276;139631;-62
2022/01/22 09:27:32;;;;;;;10.70;6.10;;;;;;;-0.33;66.14;99327.02;221480;1276;140541;-64
2022/01/22 09:32:36;;;;;;;12.60;6.30;;;;;;;-0.27;66.14;99336.34;221392;1275;139816;-64
2022/01/22 09:38:11;;;;;;;13.60;6.90;;;;;;;-0.21;66.08;99332.09;220971;1276;139221;-60
2022/01/22 09:43:44;;;;;;;12.30;6.30;;;;;;;-0.14;66.07;99339.83;221352;1276;139002;-62
2022/01/22 09:49:06;;;;;;;14.00;6.30;;;;;;;-0.11;65.88;99339.10;220541;1277;139137;-59
2022/01/22 09:54:13;;;;;;;14.30;6.50;;;;;;;0.01;65.87;99337.52;221098;1275;139714;-61
2022/01/22 09:59:32;;;;;;;15.90;7.20;;;;;;;0.13;65.80;99336.64;221174;1275;139770;-62
2022/01/22 10:04:49;;;;;;;10.80;6.30;;;;;;;0.26;65.68;99345.01;221235;1277;139123;-61
2022/01/22 10:10:10;;;;;;;13.00;6.30;;;;;;;0.32;65.50;99353.11;221251;1275;140328;-62
2022/01/22 10:15:16;;;;;;;13.20;5.90;;;;;;;0.39;65.48;99357.38;221431;1275;139008;-60
2022/01/22 10:20:28;;;;;;;13.70;7.10;;;;;;;0.44;65.38;99352.92;220721;1274;139846;-61
2022/01/22 10:25:42;;;;;;;15.30;6.20;;;;;;;0.49;65.08;99357.20;221425;1276;140018;-61
2022/01/22 10:30:45;;;;;;;15.50;6.60;;;;;;;0.47;64.91;99362.11;221278;1277;139071;-63
2022/01/22 10:35:50;;;;;;;14.40;6.20;;;;;;;0.50;64.87;99359.63;221207;1276;139661;-62
2022/01/22 10:41:14;;;;;;;16.20;6.60;;;;;;;0.49;64.80;99360.34;220907;1276;139596;-61
2022/01/22 10:46:20;;;;;;;8.80;5.40;;;;;;;0.44;64.67;99358.33;221366;1276;139128;-63
2022/01/22 10:51:29;;;;;;;15.70;6.20;;;;;;;0.51;64.93;99364.85;221487;1275;139056;-60
2022/01/22 10:56:32;;;;;;;12.80;6.40;;;;;;;0.55;64.58;99366.36;221178;1275;138994;-62
2022/01/22 11:01:56;;;;;;;11.40;4.80;;;;;;;0.52;64.39;99375.30;221398;1276;139150;-62
2022/01/22 11:07:07;;;;;;;15.50;5.50;;;;;;;0.50;64.38;99380.41;220763;1277;140841;-63
2022/01/22 11:12:30;;;;;;;15.30;6.30;;;;;;;0.57;64.39;99382.73;219935;1276;138621;-59
2022/01/22 11:17:34;;;;;;;13.30;6.10;;;;;;;0.62;64.27;99385.45;220801;1276;139427;-59
2022/01/22 11:22:38;;;;;;;11.00;5.10;;;;;;;0.67;64.10;99394.27;221306;1276;139255;-62
2022/01/22 11:27:42;;;;;;;10.80;4.90;;;;;;;0.72;63.86;99399.08;221470;1276;142139;-61
2022/01/22 11:32:52;;;;;;;11.90;4.80;;;;;;;0.69;63.75;99406.45;221372;1276;139130;-60
2022/01/22 11:38:07;;;;;;;15.20;5.50;;;;;;;0.68;63.52;99419.58;221344;1275;138686;-61
2022/01/22 11:43:13;;;;;;;11.70;5.70;;;;;;;0.65;63.49;99439.00;221273;1276;139511;-61
2022/01/22 11:48:24;;;;;;;14.40;5.50;;;;;;;0.64;63.74;99450.19;221488;1276;141521;-60
2022/01/22 11:53:30;;;;;;;12.90;5.50;;;;;;;0.57;63.69;99448.02;220797;1276;139176;-59
2022/01/22 11:58:56;;;;;;;14.70;6.20;;;;;;;0.50;63.60;99439.40;221169;1275;139051;-59
2022/01/22 12:03:59;;;;;;;12.10;5.20;;;;;;;0.47;63.96;99443.45;221457;1275;139491;-60
2022/01/22 12:09:25;;;;;;;11.50;4.50;;;;;;;0.47;63.96;99455.49;221189;1276;140484;-60
2022/01/22 12:14:50;;;;;;;16.90;5.70;;;;;;;0.61;64.03;99469.27;221272;1275;140268;-59
2022/01/22 12:25:08;;;;;;;9.80;5.30;;;;;;;0.84;63.86;99492.66;221252;1276;139766;-62
2022/01/22 12:30:13;;;;;;;11.70;5.60;;;;;;;0.84;63.72;99508.20;221312;1275;139786;-58
2022/01/22 12:35:41;;;;;;;14.00;5.70;;;;;;;0.78;63.68;99513.71;221278;1275;139889;-60
2022/01/22 12:40:46;;;;;;;15.80;5.80;;;;;;;0.78;63.68;99513.36;221300;1276;139994;-60
2022/01/22 12:45:55;;;;;;;11.80;5.50;;;;;;;0.79;63.59;99513.35;221341;1275;139046;-62
2022/01/22 12:51:04;;;;;;;12.40;5.90;;;;;;;0.77;63.44;99521.59;221439;1274;140194;-62
2022/01/22 13:01:21;;;;;;;13.30;6.00;;;;;;;0.72;63.45;99535.98;221412;1275;141312;-62
2022/01/22 13:06:35;;;;;;;17.50;6.30;;;;;;;0.67;63.42;99550.17;221389;1276;139294;-61
2022/01/22 13:12:05;;;;;;;12.90;6.00;;;;;;;0.60;63.26;99552.91;221323;1276;139461;-62
2022/01/22 13:17:12;;;;;;;15.40;6.60;;;;;;;0.48;63.26;99557.08;221317;1275;140155;-63
2022/01/22 13:22:16;;;;;;;13.40;6.10;;;;;;;0.48;63.71;99567.38;221370;1275;139090;-62
2022/01/22 13:27:20;;;;;;;15.30;6.60;;;;;;;0.48;63.48;99576.45;221378;1276;142705;-63
2022/01/22 13:32:46;;;;;;;12.80;4.90;;;;;;;0.48;63.52;99586.23;221254;1277;139852;-61
2022/01/22 13:48:08;;;;;;;14.90;6.30;;;;;;;0.69;63.51;99611.80;221310;1275;139042;-60
2022/01/22 13:53:27;;;;;;;20.60;8.50;;;;;;;0.78;63.47;99617.63;221245;1276;139907;-61
2022/01/22 13:58:30;;;;;;;13.10;6.20;;;;;;;0.82;63.46;99627.36;221410;1275;138893;-60
2022/01/22 14:03:44;;;;;;;12.50;5.40;;;;;;;0.80;63.21;99639.95;221576;1277;138649;-62
2022/01/22 14:08:48;;;;;;;11.90;5.30;;;;;;;0.75;62.99;99654.50;221342;1276;141644;-62
2022/01/22 14:14:04;;;;;;;15.90;5.10;;;;;;;0.70;63.01;99663.99;221464;1275;139028;-61
2022/01/22 14:19:07;;;;;;;14.30;5.40;;;;;;;0.64;62.85;99671.92;221191;1276;139617;-62
2022/01/22 14:24:10;;;;;;;13.00;5.90;;;;;;;0.55;62.66;99674.11;221198;1276;140039;-60
2022/01/22 14:29:14;;;;;;;14.10;6.70;;;;;;;0.52;63.01;99676.95;221283;1277;139201;-57
2022/01/22 14:34:31;;;;;;;14.80;6.00;;;;;;;0.53;62.96;99679.73;221240;1277;140575;-63
2022/01/22 14:45:08;;;;;;;16.50;6.50;;;;;;;0.46;63.00;99701.11;221217;1275;140180;-62
2022/01/22 14:50:12;;;;;;;16.20;6.70;;;;;;;0.42;63.08;99710.56;221386;1277;139301;-63
2022/01/22 14:55:15;;;;;;;13.80;6.30;;;;;;;0.41;63.02;99722.63;221046;1276;139763;-62
2022/01/22 15:00:20;;;;;;;18.50;7.60;;;;;;;0.44;63.09;99730.45;221245;1277;140659;-62
2022/01/22 15:05:23;;;;;;;16.30;7.80;;;;;;;0.46;63.01;99739.33;221061;1277;138596;-60
2022/01/22 15:10:26;;;;;;;20.00;7.90;;;;;;;0.44;62.98;99753.49;221229;1274;139745;-62
2022/01/22 15:15:35;;;;;;;18.70;7.30;;;;;;;0.47;63.21;99758.52;221368;1276;139325;-62
2022/01/22 15:20:40;;;;;;;18.30;8.30;;;;;;;0.52;63.08;99769.30;221219;1276;139869;-61
2022/01/22 15:25:43;;;;;;;19.30;8.50;;;;;;;0.58;63.25;99776.23;221409;1276;139694;-62
2022/01/22 15:30:51;;;;;;;135.90;77.80;;;;;;;0.62;63.39;99787.36;220981;1277;139077;-61
2022/01/22 15:35:54;;;;;;;23.20;10.60;;;;;;;0.94;64.14;99793.66;221070;1277;140541;-61
2022/01/22 15:40:57;;;;;;;23.30;9.70;;;;;;;1.00;63.54;99802.33;221193;1276;139674;-60
2022/01/22 15:46:00;;;;;;;19.90;8.50;;;;;;;0.93;63.09;99802.93;221557;1274;139180;-56
2022/01/22 15:51:03;;;;;;;20.70;8.80;;;;;;;0.84;62.99;99812.63;221035;1277;139396;-58
2022/01/22 15:56:06;;;;;;;21.80;9.80;;;;;;;0.72;62.87;99822.55;221184;1277;139905;-60
2022/01/22 16:01:11;;;;;;;20.20;9.90;;;;;;;0.63;63.04;99832.57;221224;1277;139647;-60
2022/01/22 16:06:22;;;;;;;20.20;9.30;;;;;;;0.61;63.02;99841.14;221019;1276;139068;-59
2022/01/22 16:11:25;;;;;;;28.50;10.80;;;;;;;0.57;63.12;99849.73;221079;1276;139163;-59
2022/01/22 16:16:49;;;;;;;21.60;10.20;;;;;;;0.53;63.17;99860.06;221131;1276;139443;-60
2022/01/22 16:21:53;;;;;;;22.70;10.10;;;;;;;0.51;63.15;99863.92;221110;1276;138962;-58
2022/01/22 16:26:57;;;;;;;20.80;8.40;;;;;;;0.45;63.15;99867.98;221165;1276;140360;-59
2022/01/22 16:32:00;;;;;;;21.70;9.80;;;;;;;0.41;63.33;99884.44;221343;1277;140514;-61
2022/01/22 16:37:03;;;;;;;19.80;9.70;;;;;;;0.42;63.46;99894.71;221469;1277;139583;-59
2022/01/22 16:42:08;;;;;;;21.80;9.30;;;;;;;0.39;63.36;99903.45;221348;1275;139483;-59
2022/01/22 16:57:45;;;;;;;21.90;9.90;;;;;;;0.39;63.42;99920.73;221584;1276;139678;-60
2022/01/22 17:02:51;;;;;;;23.20;9.90;;;;;;;0.38;63.41;99932.08;221355;1275;139030;-60
2022/01/22 17:08:01;;;;;;;22.60;10.50;;;;;;;0.36;63.52;99942.05;221268;1275;138942;-60
2022/01/22 17:18:37;;;;;;;21.70;9.90;;;;;;;0.40;63.53;99957.39;219756;1276;140369;-64
2022/01/22 17:23:40;;;;;;;22.60;9.60;;;;;;;0.36;63.57;99961.60;221198;1276;139364;-63
2022/01/22 17:28:44;;;;;;;20.80;9.80;;;;;;;0.38;63.68;99963.34;221240;1276;139952;-60
2022/01/22 17:33:48;;;;;;;28.80;11.20;;;;;;;0.41;63.64;99965.23;221604;1276;139638;-64
2022/01/22 17:38:51;;;;;;;20.90;10.70;;;;;;;0.46;63.73;99964.67;221313;1276;139199;-57
2022/01/22 17:43:55;;;;;;;28.50;15.10;;;;;;;0.72;64.66;99969.77;221376;1275;139787;-61
2022/01/22 17:48:59;;;;;;;23.40;11.50;;;;;;;0.96;64.19;99969.92;221335;1275;140597;-64
2022/01/22 17:54:02;;;;;;;27.10;11.70;;;;;;;0.82;63.46;99980.50;221543;1276;139825;-61
2022/01/22 17:59:05;;;;;;;26.30;11.70;;;;;;;0.66;63.42;99976.94;221384;1276;140814;-61
2022/01/22 18:04:10;;;;;;;30.20;12.00;;;;;;;0.53;63.35;99981.40;221305;1275;139608;-60
2022/01/22 18:09:13;;;;;;;31.80;12.50;;;;;;;0.45;63.57;99985.98;221396;1275;141862;-59
2022/01/22 18:14:17;;;;;;;25.00;12.50;;;;;;;0.39;63.70;99986.89;221295;1276;141165;-62
2022/01/22 18:19:20;;;;;;;26.60;12.70;;;;;;;0.33;63.72;99986.06;221224;1276;139642;-63
2022/01/22 18:24:24;;;;;;;28.00;12.40;;;;;;;0.27;63.80;99991.14;221244;1275;139974;-61
2022/01/22 18:29:27;;;;;;;31.20;13.00;;;;;;;0.20;63.68;99995.54;221302;1275;140130;-61
2022/01/22 18:34:34;;;;;;;27.70;11.90;;;;;;;0.21;64.01;99996.05;221347;1275;140025;-57
2022/01/22 18:39:37;;;;;;;24.20;11.80;;;;;;;0.28;64.09;99999.52;221406;1274;139443;-62
2022/01/22 18:44:41;;;;;;;28.30;13.10;;;;;;;0.34;64.07;99999.32;221059;1275;139017;-62
2022/01/22 18:49:44;;;;;;;26.90;12.40;;;;;;;0.35;64.09;99997.39;221056;1275;140702;-61
2022/01/22 18:54:47;;;;;;;30.60;12.90;;;;;;;0.35;63.99;99994.95;221363;1275;140336;-62
2022/01/22 18:59:50;;;;;;;25.70;11.80;;;;;;;0.36;64.20;99994.94;221413;1274;139453;-61
2022/01/22 19:04:53;;;;;;;84.70;46.30;;;;;;;0.47;65.30;99996.98;221480;1276;139801;-60
2022/01/22 19:09:56;;;;;;;28.10;14.50;;;;;;;1.04;66.05;99997.63;221359;1275;140874;-61
2022/01/22 19:14:59;;;;;;;29.90;13.40;;;;;;;0.95;64.41;99994.73;221357;1274;140341;-62
2022/01/22 19:20:05;;;;;;;27.10;13.20;;;;;;;0.73;63.87;100001.17;221304;1276;139508;-62
2022/01/22 19:30:12;;;;;;;34.60;16.10;;;;;;;0.67;64.74;100006.45;221401;1276;140280;-62
2022/01/22 19:35:15;;;;;;;24.40;11.80;;;;;;;0.61;63.93;100014.70;221353;1274;140405;-61
2022/01/22 19:40:18;;;;;;;31.00;13.40;;;;;;;0.50;63.88;100020.70;221370;1274;139903;-62
2022/01/22 19:45:22;;;;;;;37.70;16.80;;;;;;;0.43;64.24;100018.13;221402;1274;140250;-61
2022/01/22 19:50:26;;;;;;;31.40;13.80;;;;;;;0.64;64.91;100013.64;221453;1274;139491;-61
2022/01/22 19:55:31;;;;;;;31.80;14.30;;;;;;;0.60;64.22;100015.05;221455;1274;139577;-60
2022/01/22 20:00:37;;;;;;;28.50;14.50;;;;;;;0.49;63.92;100018.61;221222;1276;139687;-63
2022/01/22 20:05:40;;;;;;;38.10;15.30;;;;;;;0.35;63.96;100024.27;221273;1275;139243;-63
2022/01/22 20:10:52;;;;;;;31.40;13.90;;;;;;;0.24;63.97;100025.02;221407;1274;139873;-64
2022/01/22 20:15:56;;;;;;;31.20;15.10;;;;;;;0.13;64.18;100020.17;221581;1275;139836;-62
2022/01/22 20:21:02;;;;;;;32.40;15.00;;;;;;;0.06;64.24;100020.55;221429;1276;139558;-62
2022/01/22 20:26:25;;;;;;;30.40;14.50;;;;;;;0.05;64.38;100019.86;221276;1276;140084;-64
2022/01/22 20:31:29;;;;;;;32.50;14.90;;;;;;;0.06;64.49;100021.42;221212;1275;139894;-61
2022/01/22 20:36:33;;;;;;;35.30;16.50;;;;;;;0.08;64.55;100022.29;221348;1275;139644;-63
2022/01/22 20:41:37;;;;;;;42.20;19.50;;;;;;;0.04;64.64;100018.45;221301;1276;141330;-61
2022/01/22 20:47:01;;;;;;;34.00;14.60;;;;;;;-0.02;64.56;100015.70;221228;1275;139208;-63
2022/01/22 20:52:05;;;;;;;39.50;15.30;;;;;;;-0.05;64.63;100015.53;221368;1275;140052;-64
2022/01/22 20:57:10;;;;;;;32.50;14.30;;;;;;;-0.10;64.64;100008.05;221299;1276;139455;-63
2022/01/22 21:02:13;;;;;;;30.10;13.10;;;;;;;-0.11;64.81;100008.91;221407;1276;139733;-62
2022/01/22 21:07:16;;;;;;;33.00;13.60;;;;;;;-0.09;64.69;100011.88;221209;1275;141150;-66
2022/01/22 21:12:20;;;;;;;27.50;12.60;;;;;;;-0.02;64.68;100009.25;221356;1275;141279;-64
2022/01/22 21:17:23;;;;;;;26.70;12.70;;;;;;;0.03;64.69;100006.08;221477;1275;139953;-63
2022/01/22 21:22:26;;;;;;;30.40;13.20;;;;;;;0.04;64.71;100001.37;221383;1276;139688;-65
2022/01/22 21:27:29;;;;;;;27.70;13.40;;;;;;;0.04;64.53;100001.55;221497;1276;139782;-62
2022/01/22 21:32:32;;;;;;;32.00;13.90;;;;;;;0.02;64.71;100001.19;221274;1275;140791;-64
2022/01/22 21:43:23;;;;;;;31.30;13.20;;;;;;;-0.04;64.51;100011.67;221185;1275;139587;-63
2022/01/22 21:48:28;;;;;;;26.40;11.50;;;;;;;-0.05;64.62;100009.95;221169;1276;140694;-61
2022/01/22 21:53:32;;;;;;;26.60;11.30;;;;;;;-0.04;64.59;100010.30;221190;1275;139245;-63
2022/01/22 21:58:35;;;;;;;24.80;11.20;;;;;;;-0.03;64.62;100014.14;221152;1275;139867;-60
2022/01/22 22:03:38;;;;;;;30.10;12.40;;;;;;;-0.01;64.60;100016.39;221524;1275;140758;-63
2022/01/22 22:08:41;;;;;;;24.40;10.30;;;;;;;0.08;64.69;100022.81;221366;1276;139951;-61
2022/01/22 22:13:46;;;;;;;30.60;12.50;;;;;;;0.08;64.37;100015.48;221281;1277;140032;-61
2022/01/22 22:19:06;;;;;;;23.40;10.80;;;;;;;0.04;64.36;100011.48;221353;1275;140239;-61
2022/01/22 22:24:09;;;;;;;25.80;11.70;;;;;;;0.04;64.49;100014.80;221320;1275;140228;-61
2022/01/22 22:29:13;;;;;;;25.10;11.80;;;;;;;0.02;64.47;100010.45;221266;1275;140343;-59
2022/01/22 22:34:16;;;;;;;31.00;12.60;;;;;;;0.02;64.39;100016.20;221418;1274;140054;-60
2022/01/22 22:39:19;;;;;;;26.30;11.70;;;;;;;0.00;64.51;100019.70;221401;1275;139850;-63
2022/01/22 22:44:22;;;;;;;26.90;12.10;;;;;;;0.02;64.49;100023.70;221105;1275;139751;-60
2022/01/22 22:49:26;;;;;;;27.80;12.30;;;;;;;0.01;64.57;100023.70;221205;1276;139368;-63
2022/01/22 22:54:29;;;;;;;29.80;12.90;;;;;;;-0.01;64.51;100028.26;221389;1276;139504;-60
2022/01/22 22:59:31;;;;;;;28.20;12.00;;;;;;;-0.02;64.51;100025.98;221114;1276;139922;-61
2022/01/22 23:04:34;;;;;;;30.70;12.20;;;;;;;0.01;64.49;100024.40;221370;1276;140128;-59
2022/01/22 23:09:38;;;;;;;27.60;12.20;;;;;;;0.06;64.63;100018.29;221216;1274;139335;-57
2022/01/22 23:14:47;;;;;;;24.10;11.70;;;;;;;0.12;64.62;100014.25;221384;1276;139628;-59
2022/01/22 23:30:55;;;;;;;31.40;12.10;;;;;;;-0.04;64.49;100005.94;220383;1276;140585;-62
2022/01/22 23:57:34;;;;;;;26.70;11.80;;;;;;;-0.23;64.33;100024.64;221063;1277;139476;-61
